createdAt,value
2024-01-26T00:00:37.704Z,12.00
2024-01-26T00:03:06.816Z,8.83
2024-01-26T00:05:35.498Z,25.87
2024-01-26T00:08:05.346Z,22.03
2024-01-26T00:10:35.101Z,16.50
2024-01-26T00:13:03.811Z,14.73
2024-01-26T00:15:32.610Z,9.80
2024-01-26T00:18:02.705Z,23.33
2024-01-26T00:20:31.399Z,18.80
2024-01-26T00:23:00.097Z,14.50
2024-01-26T00:25:28.732Z,11.00
2024-01-26T00:27:57.331Z,17.23
2024-01-26T00:30:26.037Z,17.83
2024-01-26T00:32:55.593Z,11.87
2024-01-26T00:35:25.680Z,17.97
2024-01-26T00:37:54.328Z,15.13
2024-01-26T00:40:22.965Z,16.80
2024-01-26T00:42:51.696Z,18.27
2024-01-26T00:45:20.284Z,19.70
2024-01-26T00:47:49.117Z,20.50
2024-01-26T00:50:17.963Z,9.10
2024-01-26T00:52:48.463Z,17.00
2024-01-26T00:55:17.203Z,12.47
2024-01-26T00:57:45.916Z,10.93
2024-01-26T01:00:15.400Z,13.50
2024-01-26T01:02:44.324Z,10.00
2024-01-26T01:05:13.044Z,15.70
2024-01-26T01:07:41.736Z,15.17
2024-01-26T01:10:12.545Z,15.67
2024-01-26T01:12:41.260Z,16.87
2024-01-26T01:15:12.750Z,11.27
2024-01-26T01:17:41.565Z,13.40
2024-01-26T01:20:13.697Z,15.90
2024-01-26T01:22:43.210Z,12.53
2024-01-26T01:25:13.415Z,18.57
2024-01-26T01:27:42.177Z,18.27
2024-01-26T01:30:11.309Z,6.67
2024-01-26T01:32:39.992Z,11.30
2024-01-26T01:35:09.233Z,16.13
2024-01-26T01:37:37.824Z,11.90
2024-01-26T01:40:08.356Z,8.07
2024-01-26T01:42:38.384Z,15.40
2024-01-26T01:45:12.373Z,12.30
2024-01-26T01:47:41.058Z,13.93
2024-01-26T01:50:10.417Z,11.67
2024-01-26T01:52:41.476Z,14.03
2024-01-26T01:55:12.126Z,8.70
2024-01-26T01:57:42.666Z,9.47
2024-01-26T02:00:17.605Z,12.17
2024-01-26T02:02:47.571Z,14.27
2024-01-26T02:05:16.617Z,20.27
2024-01-26T02:07:49.049Z,8.03
2024-01-26T02:10:17.627Z,13.03
2024-01-26T02:12:47.711Z,14.57
2024-01-26T02:15:16.376Z,12.73
2024-01-26T02:17:45.662Z,10.93
2024-01-26T02:20:14.366Z,9.53
2024-01-26T02:22:42.941Z,10.53
2024-01-26T02:25:12.902Z,12.93
2024-01-26T02:27:41.686Z,5.20
2024-01-26T02:30:11.119Z,12.98
2024-01-26T02:32:39.774Z,17.80
2024-01-26T02:35:09.772Z,8.67
2024-01-26T02:37:38.343Z,14.38
2024-01-26T02:40:09.015Z,18.60
2024-01-26T02:42:39.198Z,10.47
2024-01-26T02:45:08.901Z,11.52
2024-01-26T02:47:37.710Z,9.02
2024-01-26T02:50:07.723Z,13.10
2024-01-26T02:52:36.373Z,9.57
2024-01-26T02:55:05.242Z,14.63
2024-01-26T02:57:33.882Z,16.65
2024-01-26T03:00:06.052Z,11.93
2024-01-26T03:02:34.927Z,8.57
2024-01-26T03:05:03.524Z,16.63
2024-01-26T03:07:32.215Z,12.88
2024-01-26T03:10:00.839Z,17.90
2024-01-26T03:12:29.664Z,11.85
2024-01-26T03:14:58.355Z,14.57
2024-01-26T03:17:28.538Z,14.57
2024-01-26T03:19:59.100Z,11.98
2024-01-26T03:22:27.842Z,14.93
2024-01-26T03:24:56.521Z,14.63
2024-01-26T03:27:25.822Z,27.47
2024-01-26T03:29:54.472Z,10.93
2024-01-26T03:32:23.157Z,20.77
2024-01-26T03:34:53.205Z,16.92
2024-01-26T03:37:21.859Z,14.10
2024-01-26T03:39:50.486Z,12.68
2024-01-26T03:42:19.198Z,18.90
2024-01-26T03:44:48.088Z,14.48
2024-01-26T03:47:16.786Z,15.57
2024-01-26T03:49:47.063Z,19.58
2024-01-26T03:52:17.201Z,33.80
2024-01-26T03:54:45.854Z,11.00
2024-01-26T03:57:14.894Z,13.13
2024-01-26T03:59:43.562Z,12.35
2024-01-26T04:02:12.228Z,17.00
2024-01-26T04:04:40.904Z,21.97
2024-01-26T04:07:10.031Z,21.67
2024-01-26T04:09:40.185Z,21.93
2024-01-26T04:12:09.393Z,19.97
2024-01-26T04:14:38.086Z,22.73
2024-01-26T04:17:06.883Z,19.90
2024-01-26T04:19:36.783Z,14.97
2024-01-26T04:22:05.690Z,23.43
2024-01-26T04:24:34.334Z,20.20
2024-01-26T04:27:04.435Z,10.87
2024-01-26T04:29:33.084Z,13.00
2024-01-26T04:32:01.725Z,19.30
2024-01-26T04:34:30.699Z,15.17
2024-01-26T04:36:59.443Z,14.90
2024-01-26T04:39:28.086Z,30.30
2024-01-26T04:41:56.791Z,14.50
2024-01-26T04:44:26.793Z,15.93
2024-01-26T04:46:56.507Z,18.70
2024-01-26T04:49:25.372Z,16.70
2024-01-26T04:51:53.995Z,23.97
2024-01-26T04:54:23.008Z,22.17
2024-01-26T04:56:51.790Z,14.47
2024-01-26T04:59:20.461Z,19.93
2024-01-26T05:01:50.462Z,13.57
2024-01-26T05:04:19.129Z,28.80
2024-01-26T05:06:47.898Z,18.87
2024-01-26T05:09:16.829Z,27.40
2024-01-26T05:11:45.900Z,10.07
2024-01-26T05:14:14.582Z,23.70
2024-01-26T05:16:43.221Z,21.43
2024-01-26T05:19:13.356Z,18.87
2024-01-26T05:21:42.938Z,17.60
2024-01-26T05:24:11.766Z,14.47
2024-01-26T05:26:40.955Z,29.93
2024-01-26T05:29:09.749Z,16.07
2024-01-26T05:31:41.369Z,17.73
2024-01-26T05:34:10.254Z,13.93
2024-01-26T05:36:43.607Z,23.63
2024-01-26T05:39:12.574Z,13.47
2024-01-26T05:41:41.266Z,26.07
2024-01-26T05:44:09.881Z,14.73
2024-01-26T05:46:38.527Z,17.43
2024-01-26T05:49:09.396Z,24.90
2024-01-26T05:51:38.800Z,13.37
2024-01-26T05:54:08.941Z,24.93
2024-01-26T05:56:40.931Z,14.17
2024-01-26T05:59:09.653Z,17.07
2024-01-26T06:01:38.762Z,15.27
2024-01-26T06:04:07.731Z,24.33
2024-01-26T06:06:36.629Z,21.77
2024-01-26T06:09:05.589Z,16.50
2024-01-26T06:11:35.694Z,19.30
2024-01-26T06:14:04.471Z,11.27
2024-01-26T06:16:33.134Z,23.80
2024-01-26T06:19:04.274Z,21.83
2024-01-26T06:21:33.996Z,23.10
2024-01-26T06:24:02.779Z,8.50
2024-01-26T06:26:31.472Z,20.87
2024-01-26T06:29:01.460Z,8.47
2024-01-26T06:31:30.064Z,17.37
2024-01-26T06:33:59.087Z,16.53
2024-01-26T06:36:27.871Z,20.00
2024-01-26T06:38:56.567Z,25.03
2024-01-26T06:41:25.250Z,34.20
2024-01-26T06:43:53.882Z,20.23
2024-01-26T06:46:24.257Z,19.33
2024-01-26T06:48:53.100Z,29.07
2024-01-26T06:51:21.905Z,10.53
2024-01-26T06:53:50.663Z,13.60
2024-01-26T06:56:19.396Z,12.63
2024-01-26T06:58:48.067Z,15.73
2024-01-26T07:01:16.684Z,21.30
2024-01-26T07:03:46.947Z,17.13
2024-01-26T07:06:15.808Z,21.23
2024-01-26T07:08:45.388Z,15.00
2024-01-26T07:11:15.256Z,15.77
2024-01-26T07:13:43.914Z,23.93
2024-01-26T07:16:12.569Z,15.43
2024-01-26T07:18:41.403Z,22.03
2024-01-26T07:21:11.919Z,19.97
2024-01-26T07:23:42.289Z,18.70
2024-01-26T07:26:11.056Z,24.08
2024-01-26T07:28:39.712Z,19.90
2024-01-26T07:31:08.349Z,17.60
2024-01-26T07:33:37.229Z,9.55
2024-01-26T07:36:06.501Z,23.70
2024-01-26T07:38:36.554Z,31.27
2024-01-26T07:41:05.459Z,16.85
2024-01-26T07:43:34.092Z,20.40
2024-01-26T07:46:02.692Z,32.97
2024-01-26T07:48:31.689Z,29.40
2024-01-26T07:51:00.467Z,22.17
2024-01-26T07:53:29.162Z,22.10
2024-01-26T07:55:59.121Z,18.83
2024-01-26T07:58:27.767Z,26.13
2024-01-26T08:00:56.500Z,61.27
2024-01-26T08:03:25.370Z,60.30
2024-01-26T08:05:54.276Z,34.30
2024-01-26T08:08:22.909Z,37.73
2024-01-26T08:10:51.573Z,45.03
2024-01-26T08:13:21.603Z,56.57
2024-01-26T08:15:50.290Z,37.50
2024-01-26T08:18:19.184Z,57.00
2024-01-26T08:20:48.225Z,25.13
2024-01-26T08:23:17.018Z,69.30
2024-01-26T08:25:45.938Z,55.63
2024-01-26T08:28:14.657Z,39.10
2024-01-26T08:30:44.775Z,21.83
2024-01-26T08:33:13.604Z,38.70
2024-01-26T08:35:43.022Z,32.60
2024-01-26T08:38:11.798Z,24.30
2024-01-26T08:40:40.431Z,20.83
2024-01-26T08:43:10.112Z,32.80
2024-01-26T08:45:38.680Z,30.87
2024-01-26T08:48:09.362Z,21.87
2024-01-26T08:50:40.048Z,31.67
2024-01-26T08:53:10.509Z,22.60
2024-01-26T08:55:40.681Z,24.70
2024-01-26T08:58:09.376Z,15.07
2024-01-26T09:00:38.225Z,21.33
2024-01-26T09:03:08.558Z,17.67
2024-01-26T09:05:37.318Z,23.13
2024-01-26T09:08:06.397Z,21.73
2024-01-26T09:10:35.288Z,85.83
2024-01-26T09:13:04.033Z,38.80
2024-01-26T09:15:32.621Z,34.03
2024-01-26T09:18:02.259Z,22.93
2024-01-26T09:20:32.629Z,19.50
2024-01-26T09:23:01.315Z,18.67
2024-01-26T09:25:29.958Z,21.33
2024-01-26T09:27:58.620Z,43.90
2024-01-26T09:30:27.432Z,25.63
2024-01-26T09:32:56.159Z,32.40
2024-01-26T09:35:26.029Z,23.80
2024-01-26T09:37:56.037Z,14.77
2024-01-26T09:40:25.199Z,21.77
2024-01-26T09:42:54.034Z,14.23
2024-01-26T09:45:23.993Z,29.83
2024-01-26T09:47:52.904Z,19.70
2024-01-26T09:50:22.381Z,15.03
2024-01-26T09:52:52.467Z,16.40
2024-01-26T09:55:22.632Z,16.87
2024-01-26T09:57:51.236Z,14.83
2024-01-26T10:00:20.604Z,30.03
2024-01-26T10:02:50.384Z,19.80
2024-01-26T10:05:19.647Z,19.47
2024-01-26T10:07:48.290Z,27.33
2024-01-26T10:10:17.802Z,14.73
2024-01-26T10:12:47.864Z,9.13
2024-01-26T10:15:18.205Z,15.97
2024-01-26T10:17:48.692Z,20.37
2024-01-26T10:20:19.913Z,17.90
2024-01-26T10:22:48.762Z,29.50
2024-01-26T10:25:17.444Z,17.50
2024-01-26T10:27:47.533Z,17.70
2024-01-26T10:30:16.585Z,16.37
2024-01-26T10:32:47.709Z,13.87
2024-01-26T10:35:17.568Z,8.50
2024-01-26T10:37:46.472Z,20.70
2024-01-26T10:40:18.472Z,20.43
2024-01-26T10:42:49.507Z,17.63
2024-01-26T10:45:18.436Z,14.37
2024-01-26T10:47:47.398Z,15.40
2024-01-26T10:50:16.362Z,21.80
2024-01-26T10:52:46.379Z,12.90
2024-01-26T10:55:16.024Z,12.80
2024-01-26T10:57:44.748Z,16.37
2024-01-26T11:00:16.937Z,13.80
2024-01-26T11:02:45.861Z,14.70
2024-01-26T11:05:14.857Z,9.13
2024-01-26T11:07:46.385Z,13.10
2024-01-26T11:10:19.369Z,20.03
2024-01-26T11:12:48.011Z,12.53
2024-01-26T11:15:19.522Z,12.07
2024-01-26T11:17:51.660Z,8.07
2024-01-26T11:20:26.757Z,6.50
2024-01-26T11:23:02.340Z,9.50
2024-01-26T11:25:36.574Z,17.33
2024-01-26T11:28:06.069Z,6.97
2024-01-26T11:30:36.840Z,11.10
2024-01-26T11:33:16.193Z,9.63
2024-01-26T11:35:44.904Z,8.10
2024-01-26T11:38:13.554Z,4.40
2024-01-26T11:40:42.215Z,10.17
2024-01-26T11:43:11.381Z,4.70
2024-01-26T11:45:45.895Z,6.17
2024-01-26T11:48:15.299Z,10.83
2024-01-26T11:50:44.742Z,8.47
2024-01-26T11:53:14.977Z,9.07
2024-01-26T11:55:44.560Z,12.40
2024-01-26T11:58:13.300Z,5.97
2024-01-26T12:00:42.582Z,9.13
2024-01-26T12:03:13.611Z,11.00
2024-01-26T12:05:42.719Z,10.63
2024-01-26T12:08:11.584Z,5.50
2024-01-26T12:10:40.469Z,20.60
2024-01-26T12:13:12.990Z,20.07
2024-01-26T12:15:42.664Z,10.20
2024-01-26T12:18:13.728Z,22.60
2024-01-26T12:20:43.264Z,8.17
2024-01-26T12:23:19.349Z,6.93
2024-01-26T12:25:49.302Z,5.87
2024-01-26T12:28:18.166Z,4.70
2024-01-26T12:30:47.651Z,8.47
2024-01-26T12:33:18.916Z,4.77
2024-01-26T12:35:48.783Z,5.43
2024-01-26T12:38:18.257Z,10.43
2024-01-26T12:40:48.400Z,9.97
2024-01-26T12:43:17.559Z,5.07
2024-01-26T12:45:46.232Z,3.87
2024-01-26T12:48:15.306Z,3.80
2024-01-26T12:50:45.458Z,4.43
2024-01-26T12:53:16.785Z,6.33
2024-01-26T12:55:45.675Z,3.97
2024-01-26T12:58:14.398Z,4.77
2024-01-26T13:00:43.381Z,3.97
2024-01-26T13:03:12.149Z,4.27
2024-01-26T13:05:41.182Z,5.93
2024-01-26T13:08:11.691Z,4.18
2024-01-26T13:10:40.939Z,7.03
2024-01-26T13:13:10.003Z,4.13
2024-01-26T13:15:38.597Z,5.50
2024-01-26T13:18:17.797Z,5.13
2024-01-26T13:20:53.620Z,4.67
2024-01-26T13:23:24.560Z,45.27
2024-01-26T13:25:55.461Z,5.63
2024-01-26T13:28:25.311Z,3.33
2024-01-26T13:30:54.238Z,4.17
2024-01-26T13:33:23.411Z,3.60
2024-01-26T13:35:52.234Z,4.40
2024-01-26T13:38:22.191Z,5.67
2024-01-26T13:40:52.030Z,5.77
2024-01-26T13:43:20.847Z,6.10
2024-01-26T13:45:49.451Z,15.50
2024-01-26T13:48:18.632Z,10.80
2024-01-26T13:50:49.924Z,4.40
2024-01-26T13:53:22.000Z,6.53
2024-01-26T13:55:52.214Z,6.03
2024-01-26T13:58:21.601Z,4.17
2024-01-26T14:00:50.460Z,3.30
2024-01-26T14:03:20.167Z,3.93
2024-01-26T14:05:49.268Z,2.90
2024-01-26T14:08:18.003Z,2.43
2024-01-26T14:10:46.663Z,3.63
2024-01-26T14:13:16.656Z,3.23
2024-01-26T14:15:45.263Z,2.60
2024-01-26T14:18:14.059Z,2.63
2024-01-26T14:20:42.811Z,3.00
2024-01-26T14:23:11.624Z,3.00
2024-01-26T14:25:41.317Z,9.40
2024-01-26T14:28:10.822Z,4.20
2024-01-26T14:30:40.872Z,2.70
2024-01-26T14:33:09.795Z,2.53
2024-01-26T14:35:42.969Z,3.17
2024-01-26T14:38:13.437Z,2.93
2024-01-26T14:40:42.155Z,14.73
2024-01-26T14:43:11.498Z,2.77
2024-01-26T14:45:41.410Z,2.73
2024-01-26T14:48:10.304Z,3.13
2024-01-26T14:50:39.219Z,2.80
2024-01-26T14:53:07.926Z,3.20
2024-01-26T14:55:36.808Z,3.43
2024-01-26T14:58:05.664Z,2.40
2024-01-26T15:00:36.169Z,2.40
2024-01-26T15:03:06.739Z,2.53
2024-01-26T15:05:35.452Z,3.60
2024-01-26T15:08:04.126Z,2.90
2024-01-26T15:10:32.728Z,1.53
2024-01-26T15:13:01.495Z,2.10
2024-01-26T15:15:30.175Z,1.90
2024-01-26T15:17:58.879Z,1.30
2024-01-26T15:20:29.042Z,1.10
2024-01-26T15:22:57.780Z,1.30
2024-01-26T15:25:26.390Z,2.20
2024-01-26T15:27:55.031Z,2.20
2024-01-26T15:30:23.760Z,2.00
2024-01-26T15:32:52.501Z,1.00
2024-01-26T15:35:21.234Z,4.47
2024-01-26T15:37:51.373Z,0.67
2024-01-26T15:40:20.541Z,1.57
2024-01-26T15:42:49.204Z,8.73
2024-01-26T15:45:17.996Z,2.03
2024-01-26T15:47:47.392Z,1.53
2024-01-26T15:50:16.239Z,1.80
2024-01-26T15:52:46.783Z,1.43
2024-01-26T15:55:17.742Z,2.20
2024-01-26T15:57:46.866Z,2.17
2024-01-26T16:00:16.745Z,2.20
2024-01-26T16:02:45.621Z,1.83
2024-01-26T16:05:14.393Z,3.03
2024-01-26T16:07:43.272Z,4.97
2024-01-26T16:10:12.137Z,1.63
2024-01-26T16:12:42.414Z,2.30
2024-01-26T16:15:11.878Z,1.93
2024-01-26T16:17:41.008Z,5.47
2024-01-26T16:20:12.330Z,5.70
2024-01-26T16:22:40.986Z,3.93
2024-01-26T16:25:10.440Z,3.43
2024-01-26T16:27:39.218Z,3.27
2024-01-26T16:30:12.032Z,2.60
2024-01-26T16:32:40.918Z,7.73
2024-01-26T16:35:10.530Z,4.53
2024-01-26T16:37:39.226Z,4.67
2024-01-26T16:40:10.623Z,4.63
2024-01-26T16:42:39.496Z,1.77
2024-01-26T16:45:10.428Z,2.00
2024-01-26T16:47:39.214Z,2.43
2024-01-26T16:50:08.864Z,2.10
2024-01-26T16:52:39.023Z,1.20
2024-01-26T16:55:08.618Z,3.23
2024-01-26T16:57:37.267Z,1.00
2024-01-26T17:00:06.632Z,2.87
2024-01-26T17:02:36.806Z,2.10
2024-01-26T17:05:06.295Z,1.80
2024-01-26T17:07:35.735Z,0.93
2024-01-26T17:10:04.651Z,1.90
2024-01-26T17:12:33.738Z,2.63
2024-01-26T17:15:02.542Z,1.30
2024-01-26T17:17:31.306Z,2.43
2024-01-26T17:20:01.479Z,1.60
2024-01-26T17:22:30.072Z,2.00
2024-01-26T17:24:59.287Z,2.70
2024-01-26T17:27:27.984Z,2.47
2024-01-26T17:29:57.524Z,5.20
2024-01-26T17:32:26.201Z,3.73
2024-01-26T17:34:55.004Z,1.17
2024-01-26T17:37:25.300Z,2.20
2024-01-26T17:40:00.162Z,3.50
2024-01-26T17:42:32.650Z,3.83
2024-01-26T17:45:01.561Z,4.73
2024-01-26T17:47:30.275Z,2.93
2024-01-26T17:49:59.821Z,3.57
2024-01-26T17:52:30.423Z,8.03
2024-01-26T17:54:59.019Z,1.50
2024-01-26T17:57:27.697Z,1.80
2024-01-26T17:59:56.350Z,5.40
2024-01-26T18:02:27.779Z,4.40
2024-01-26T18:04:56.705Z,6.57
2024-01-26T18:07:25.360Z,5.40
2024-01-26T18:09:55.361Z,3.60
2024-01-26T18:12:24.094Z,11.77
2024-01-26T18:14:53.960Z,5.23
2024-01-26T18:17:22.717Z,9.70
2024-01-26T18:19:51.403Z,4.50
2024-01-26T18:22:20.156Z,11.50
2024-01-26T18:24:49.116Z,5.00
2024-01-26T18:27:19.185Z,9.43
2024-01-26T18:29:47.848Z,4.40
2024-01-26T18:32:16.505Z,7.90
2024-01-26T18:34:45.342Z,7.10
2024-01-26T18:37:15.511Z,7.73
2024-01-26T18:39:44.938Z,5.87
2024-01-26T18:42:13.782Z,10.13
2024-01-26T18:44:43.815Z,13.17
2024-01-26T18:47:12.512Z,8.53
2024-01-26T18:49:41.992Z,9.10
2024-01-26T18:52:10.868Z,8.27
2024-01-26T18:54:40.075Z,9.33
2024-01-26T18:57:09.065Z,13.97
2024-01-26T18:59:38.073Z,7.00
2024-01-26T19:02:09.022Z,7.43
2024-01-26T19:04:38.518Z,16.53
2024-01-26T19:07:07.423Z,10.97
2024-01-26T19:09:37.255Z,9.83
2024-01-26T19:12:09.402Z,10.50
2024-01-26T19:14:39.747Z,9.43
2024-01-26T19:17:10.825Z,13.03
2024-01-26T19:19:43.172Z,14.57
2024-01-26T19:22:12.229Z,15.10
2024-01-26T19:24:41.141Z,9.23
2024-01-26T19:27:10.240Z,9.43
2024-01-26T19:29:40.816Z,12.27
2024-01-26T19:32:10.957Z,9.00
2024-01-26T19:34:39.885Z,12.00
2024-01-26T19:37:09.231Z,16.83
2024-01-26T19:39:37.816Z,31.17
2024-01-26T19:42:07.079Z,15.10
2024-01-26T19:44:35.927Z,17.07
2024-01-26T19:47:04.777Z,18.27
2024-01-26T19:49:34.903Z,10.93
2024-01-26T19:52:04.084Z,17.50
2024-01-26T19:54:32.864Z,13.83
2024-01-26T19:57:01.642Z,13.97
2024-01-26T19:59:30.274Z,9.63
2024-01-26T20:01:58.915Z,8.60
2024-01-26T20:04:27.532Z,6.00
2024-01-26T20:06:58.166Z,8.63
2024-01-26T20:09:27.788Z,14.03
2024-01-26T20:11:56.795Z,14.77
2024-01-26T20:14:25.410Z,9.70
2024-01-26T20:16:54.098Z,15.23
2024-01-26T20:19:22.964Z,13.33
2024-01-26T20:21:51.716Z,8.93
2024-01-26T20:24:22.421Z,19.43
2024-01-26T20:26:51.463Z,11.00
2024-01-26T20:29:20.238Z,8.80
2024-01-26T20:31:50.111Z,13.47
2024-01-26T20:34:19.118Z,15.23
2024-01-26T20:36:48.047Z,9.37
2024-01-26T20:39:16.701Z,13.10
2024-01-26T20:41:52.443Z,11.50
2024-01-26T20:44:21.467Z,15.83
2024-01-26T20:46:50.658Z,16.87
2024-01-26T20:49:19.489Z,20.83
2024-01-26T20:51:51.418Z,8.13
2024-01-26T20:54:21.023Z,10.80
2024-01-26T20:56:51.152Z,9.67
2024-01-26T20:59:19.810Z,12.87
2024-01-26T21:01:48.802Z,17.23
2024-01-26T21:04:17.504Z,18.83
2024-01-26T21:06:46.411Z,28.97
2024-01-26T21:09:15.242Z,21.03
2024-01-26T21:11:44.637Z,14.43
2024-01-26T21:14:14.912Z,11.00
2024-01-26T21:16:43.576Z,22.07
2024-01-26T21:19:12.356Z,11.57
2024-01-26T21:21:41.133Z,16.07
2024-01-26T21:24:10.745Z,18.00
2024-01-26T21:26:39.453Z,15.20
2024-01-26T21:29:08.679Z,14.20
2024-01-26T21:31:38.644Z,13.67
2024-01-26T21:34:07.503Z,16.73
2024-01-26T21:36:36.290Z,12.93
2024-01-26T21:39:05.268Z,18.87
2024-01-26T21:41:35.121Z,15.80
2024-01-26T21:44:04.274Z,10.10
2024-01-26T21:46:33.146Z,19.23
2024-01-26T21:49:03.629Z,21.83
2024-01-26T21:51:43.089Z,20.37
2024-01-26T21:54:20.692Z,21.70
2024-01-26T21:56:49.518Z,11.23
2024-01-26T21:59:18.157Z,19.87
2024-01-26T22:01:46.853Z,11.03
2024-01-26T22:04:18.920Z,18.30
2024-01-26T22:06:49.796Z,15.10
2024-01-26T22:09:18.712Z,13.33
2024-01-26T22:11:47.509Z,12.30
2024-01-26T22:14:17.012Z,11.70
2024-01-26T22:16:46.060Z,11.33
2024-01-26T22:19:16.260Z,8.70
2024-01-26T22:21:44.957Z,13.00
2024-01-26T22:24:13.787Z,10.33
2024-01-26T22:26:42.551Z,29.97
2024-01-26T22:29:11.254Z,16.50
2024-01-26T22:31:39.849Z,15.40
2024-01-26T22:34:08.563Z,12.10
2024-01-26T22:36:38.627Z,8.30
2024-01-26T22:39:07.286Z,11.37
2024-01-26T22:41:36.116Z,22.73
2024-01-26T22:44:04.817Z,14.00
2024-01-26T22:46:33.476Z,15.03
2024-01-26T22:49:02.272Z,16.30
2024-01-26T22:51:30.974Z,14.97
2024-01-26T22:54:04.087Z,14.00
2024-01-26T22:56:32.811Z,18.00
2024-01-26T22:59:01.460Z,23.03
2024-01-26T23:01:31.809Z,12.40
2024-01-26T23:04:00.748Z,14.30
2024-01-26T23:06:29.553Z,6.40
2024-01-26T23:08:58.206Z,11.13
2024-01-26T23:11:30.018Z,12.73
2024-01-26T23:13:58.648Z,13.07
2024-01-26T23:16:28.191Z,16.83
2024-01-26T23:18:57.402Z,12.27
2024-01-26T23:21:26.082Z,10.97
2024-01-26T23:23:54.782Z,15.53
2024-01-26T23:26:23.396Z,21.90
2024-01-26T23:28:53.470Z,10.10
2024-01-26T23:31:22.115Z,10.20
2024-01-26T23:33:50.913Z,15.27
2024-01-26T23:36:19.661Z,18.17
2024-01-26T23:38:48.308Z,13.73
2024-01-26T23:41:16.003Z,6.63
2024-01-26T23:43:45.559Z,16.57
2024-01-26T23:46:15.566Z,17.60
2024-01-26T23:48:44.260Z,11.47
2024-01-26T23:51:12.932Z,13.07
2024-01-26T23:53:41.627Z,8.13
2024-01-26T23:56:10.229Z,13.87
2024-01-26T23:58:38.935Z,15.57
